createdAt,value
2022-09-04T00:00:49.704Z,90.12
2022-09-04T00:01:49.687Z,90.32
2022-09-04T00:02:49.686Z,90.42
2022-09-04T00:03:50.586Z,90.53
2022-09-04T00:04:49.823Z,90.53
2022-09-04T00:05:49.649Z,90.42
2022-09-04T00:06:49.637Z,90.42
2022-09-04T00:07:49.606Z,90.22
2022-09-04T00:08:49.617Z,89.92
2022-09-04T00:09:49.592Z,89.71
2022-09-04T00:10:49.588Z,89.81
2022-09-04T00:11:49.566Z,89.00
2022-09-04T00:12:49.569Z,89.10
2022-09-04T00:13:49.568Z,89.30
2022-09-04T00:14:49.577Z,89.51
2022-09-04T00:15:49.540Z,89.71
2022-09-04T00:16:49.563Z,89.81
2022-09-04T00:17:49.527Z,89.92
2022-09-04T00:18:49.569Z,90.01
2022-09-04T00:19:49.488Z,90.12
2022-09-04T00:20:49.678Z,90.01
2022-09-04T00:21:49.457Z,90.06
2022-09-04T00:22:49.472Z,90.16
2022-09-04T00:23:49.441Z,90.16
2022-09-04T00:24:49.447Z,90.26
2022-09-04T00:25:49.846Z,90.36
2022-09-04T00:26:49.419Z,90.36
2022-09-04T00:27:49.388Z,90.16
2022-09-04T00:28:49.397Z,90.16
2022-09-04T00:29:49.461Z,90.06
2022-09-04T00:30:49.448Z,90.06
2022-09-04T00:31:49.347Z,90.06
2022-09-04T00:32:49.357Z,89.86
2022-09-04T00:33:49.327Z,89.65
2022-09-04T00:34:49.327Z,89.65
2022-09-04T00:35:49.309Z,89.55
2022-09-04T00:36:50.351Z,89.65
2022-09-04T00:37:49.325Z,89.75
2022-09-04T00:38:49.311Z,89.75
2022-09-04T00:39:49.387Z,89.65
2022-09-04T00:40:49.281Z,89.75
2022-09-04T00:41:49.237Z,89.86
2022-09-04T00:42:49.256Z,89.96
2022-09-04T00:43:49.220Z,90.06
2022-09-04T00:44:49.237Z,90.16
2022-09-04T00:45:49.240Z,90.26
2022-09-04T00:46:49.190Z,90.16
2022-09-04T00:47:49.187Z,90.06
2022-09-04T00:48:49.165Z,90.06
2022-09-04T00:49:49.157Z,90.00
2022-09-04T00:50:49.128Z,90.00
2022-09-04T00:51:49.146Z,90.00
2022-09-04T00:52:49.118Z,90.10
2022-09-04T00:53:49.107Z,90.20
2022-09-04T00:54:49.090Z,90.31
2022-09-04T00:55:49.098Z,90.31
2022-09-04T00:56:49.069Z,90.20
2022-09-04T00:57:49.074Z,90.20
2022-09-04T00:58:49.058Z,90.20
2022-09-04T00:59:49.057Z,90.10
2022-09-04T01:00:49.074Z,90.20
2022-09-04T01:01:49.135Z,90.20
2022-09-04T01:02:49.026Z,90.20
2022-09-04T01:03:49.007Z,89.90
2022-09-04T01:04:49.135Z,89.79
2022-09-04T01:05:48.976Z,89.94
2022-09-04T01:06:48.950Z,90.14
2022-09-04T01:07:48.947Z,90.25
2022-09-04T01:08:48.953Z,90.25
2022-09-04T01:09:49.951Z,90.14
2022-09-04T01:10:48.906Z,90.45
2022-09-04T01:11:48.908Z,90.55
2022-09-04T01:12:48.879Z,90.55
2022-09-04T01:13:48.878Z,90.66
2022-09-04T01:14:49.943Z,90.66
2022-09-04T01:15:48.859Z,90.66
2022-09-04T01:16:48.891Z,90.66
2022-09-04T01:17:48.838Z,90.55
2022-09-04T01:18:48.807Z,90.25
2022-09-04T01:19:48.817Z,89.94
2022-09-04T01:20:48.787Z,90.04
2022-09-04T01:21:48.788Z,90.55
2022-09-04T01:22:48.768Z,90.75
2022-09-04T01:23:48.759Z,90.86
2022-09-04T01:24:48.748Z,90.86
2022-09-04T01:25:48.747Z,90.86
2022-09-04T01:26:48.718Z,90.75
2022-09-04T01:27:48.724Z,90.90
2022-09-04T01:28:48.697Z,90.90
2022-09-04T01:29:48.695Z,91.11
2022-09-04T01:30:48.678Z,91.11
2022-09-04T01:31:48.784Z,91.00
2022-09-04T01:32:48.647Z,90.70
2022-09-04T01:33:48.648Z,90.59
2022-09-04T01:34:48.626Z,90.59
2022-09-04T01:35:48.657Z,90.59
2022-09-04T01:36:48.608Z,90.39
2022-09-04T01:37:48.605Z,90.29
2022-09-04T01:38:48.588Z,90.08
2022-09-04T01:39:48.651Z,89.98
2022-09-04T01:40:48.558Z,89.88
2022-09-04T01:41:48.558Z,89.58
2022-09-04T01:42:48.547Z,89.67
2022-09-04T01:43:48.537Z,89.78
2022-09-04T01:44:48.519Z,89.67
2022-09-04T01:45:48.583Z,89.78
2022-09-04T01:46:48.496Z,89.98
2022-09-04T01:47:48.509Z,89.88
2022-09-04T01:48:48.747Z,89.98
2022-09-04T01:49:48.475Z,89.98
2022-09-04T01:50:48.465Z,90.19
2022-09-04T01:51:48.448Z,90.29
2022-09-04T01:52:48.426Z,90.29
2022-09-04T01:53:48.427Z,90.49
2022-09-04T01:54:48.404Z,90.49
2022-09-04T01:55:48.397Z,90.49
2022-09-04T01:56:48.389Z,90.64
2022-09-04T01:57:48.380Z,90.84
2022-09-04T01:58:48.357Z,90.84
2022-09-04T01:59:53.020Z,91.05
2022-09-04T02:00:49.416Z,91.05
2022-09-04T02:01:48.426Z,91.05
2022-09-04T02:02:48.867Z,91.05
2022-09-04T02:03:48.309Z,91.15
2022-09-04T02:04:48.307Z,91.05
2022-09-04T02:05:48.299Z,91.05
2022-09-04T02:06:48.259Z,91.15
2022-09-04T02:07:48.268Z,90.94
2022-09-04T02:08:48.236Z,90.94
2022-09-04T02:09:48.238Z,90.94
2022-09-04T02:10:48.299Z,90.74
2022-09-04T02:11:48.227Z,90.64
2022-09-04T02:12:48.198Z,90.64
2022-09-04T02:13:48.207Z,90.64
2022-09-04T02:14:48.177Z,90.74
2022-09-04T02:15:48.178Z,90.94
2022-09-04T02:16:48.197Z,90.84
2022-09-04T02:17:48.156Z,90.74
2022-09-04T02:18:48.127Z,90.53
2022-09-04T02:19:48.139Z,90.43
2022-09-04T02:20:48.107Z,90.43
2022-09-04T02:21:48.139Z,90.78
2022-09-04T02:22:48.087Z,90.88
2022-09-04T02:23:48.158Z,90.88
2022-09-04T02:24:48.065Z,90.84
2022-09-04T02:25:48.057Z,90.88
2022-09-04T02:26:48.043Z,90.88
2022-09-04T02:27:48.039Z,90.99
2022-09-04T02:28:48.025Z,90.88
2022-09-04T02:29:48.021Z,90.78
2022-09-04T02:30:48.006Z,90.88
2022-09-04T02:31:49.086Z,90.99
2022-09-04T02:32:47.978Z,90.99
2022-09-04T02:33:47.978Z,90.88
2022-09-04T02:34:48.347Z,90.99
2022-09-04T02:35:47.958Z,91.09
2022-09-04T02:36:50.373Z,91.19
2022-09-04T02:37:47.939Z,91.19
2022-09-04T02:38:47.896Z,91.19
2022-09-04T02:39:48.144Z,91.09
2022-09-04T02:40:48.167Z,91.19
2022-09-04T02:41:47.894Z,90.99
2022-09-04T02:42:47.861Z,90.78
2022-09-04T02:43:47.857Z,90.68
2022-09-04T02:44:47.837Z,90.58
2022-09-04T02:45:47.836Z,90.37
2022-09-04T02:46:47.878Z,90.47
2022-09-04T02:47:47.808Z,90.47
2022-09-04T02:48:48.449Z,90.68
2022-09-04T02:49:47.788Z,90.78
2022-09-04T02:50:47.775Z,90.88
2022-09-04T02:51:47.768Z,90.92
2022-09-04T02:52:47.746Z,91.23
2022-09-04T02:53:47.747Z,91.23
2022-09-04T02:54:47.717Z,91.19
2022-09-04T02:55:47.728Z,91.19
2022-09-04T02:56:47.702Z,91.19
2022-09-04T02:57:47.749Z,91.03
2022-09-04T02:58:47.701Z,90.92
2022-09-04T02:59:47.802Z,90.78
2022-09-04T03:00:47.745Z,90.68
2022-09-04T03:01:49.884Z,90.68
2022-09-04T03:02:48.178Z,90.68
2022-09-04T03:03:47.717Z,90.72
2022-09-04T03:04:47.606Z,90.78
2022-09-04T03:05:47.620Z,90.88
2022-09-04T03:06:47.611Z,90.92
2022-09-04T03:07:47.644Z,90.82
2022-09-04T03:08:47.648Z,90.82
2022-09-04T03:09:47.567Z,90.82
2022-09-04T03:10:47.627Z,90.82
2022-09-04T03:11:47.543Z,90.82
2022-09-04T03:12:47.526Z,90.82
2022-09-04T03:13:47.537Z,90.92
2022-09-04T03:14:47.500Z,90.82
2022-09-04T03:15:47.532Z,90.82
2022-09-04T03:16:47.467Z,90.92
2022-09-04T03:17:47.485Z,90.72
2022-09-04T03:18:47.482Z,90.92
2022-09-04T03:19:47.456Z,91.03
2022-09-04T03:20:48.230Z,90.82
2022-09-04T03:21:47.456Z,90.72
2022-09-04T03:22:47.457Z,90.72
2022-09-04T03:23:48.197Z,90.72
2022-09-04T03:24:47.755Z,90.72
2022-09-04T03:25:47.394Z,90.82
2022-09-04T03:26:47.356Z,90.82
2022-09-04T03:27:47.357Z,90.82
2022-09-04T03:28:47.350Z,90.82
2022-09-04T03:29:48.129Z,90.82
2022-09-04T03:30:47.357Z,90.82
2022-09-04T03:31:47.368Z,90.92
2022-09-04T03:32:47.307Z,90.92
2022-09-04T03:33:48.037Z,91.07
2022-09-04T03:34:47.320Z,91.07
2022-09-04T03:35:47.276Z,91.27
2022-09-04T03:36:47.244Z,91.38
2022-09-04T03:37:47.255Z,91.38
2022-09-04T03:38:47.241Z,91.38
2022-09-04T03:39:47.803Z,91.38
2022-09-04T03:40:48.097Z,91.58
2022-09-04T03:41:47.266Z,91.69
2022-09-04T03:42:47.298Z,91.69
2022-09-04T03:43:47.187Z,91.58
2022-09-04T03:44:47.276Z,91.69
2022-09-04T03:45:48.156Z,91.58
2022-09-04T03:46:48.090Z,91.48
2022-09-04T03:47:47.148Z,91.38
2022-09-04T03:48:47.846Z,91.38
2022-09-04T03:49:47.141Z,91.38
2022-09-04T03:50:47.907Z,91.27
2022-09-04T03:51:47.806Z,91.27
2022-09-04T03:52:47.106Z,91.27
2022-09-04T03:53:47.876Z,91.38
2022-09-04T03:54:47.777Z,91.38
2022-09-04T03:55:47.106Z,91.38
2022-09-04T03:56:47.837Z,91.48
2022-09-04T03:57:47.057Z,91.48
2022-09-04T03:58:47.017Z,91.38
2022-09-04T03:59:47.049Z,91.48
2022-09-04T04:00:47.069Z,91.38
2022-09-04T04:01:47.629Z,91.48
2022-09-04T04:02:47.813Z,91.48
2022-09-04T04:03:46.984Z,91.48
2022-09-04T04:04:46.970Z,91.38
2022-09-04T04:05:48.296Z,91.38
2022-09-04T04:06:47.656Z,91.38
2022-09-04T04:07:46.953Z,91.27
2022-09-04T04:08:46.951Z,91.52
2022-09-04T04:09:47.626Z,91.38
2022-09-04T04:10:46.875Z,91.17
2022-09-04T04:11:47.265Z,91.22
2022-09-04T04:12:46.885Z,91.22
2022-09-04T04:13:47.745Z,91.22
2022-09-04T04:14:47.673Z,91.22
2022-09-04T04:15:46.895Z,91.31
2022-09-04T04:16:48.010Z,91.31
2022-09-04T04:17:47.796Z,91.31
2022-09-04T04:18:46.807Z,91.31
2022-09-04T04:19:47.685Z,91.42
2022-09-04T04:20:47.585Z,91.42
2022-09-04T04:21:47.487Z,91.42
2022-09-04T04:22:46.767Z,91.42
2022-09-04T04:23:47.566Z,91.52
2022-09-04T04:24:46.766Z,91.63
2022-09-04T04:25:47.618Z,91.63
2022-09-04T04:26:50.543Z,91.73
2022-09-04T04:27:47.725Z,91.73
2022-09-04T04:28:47.586Z,91.83
2022-09-04T04:29:46.696Z,91.93
2022-09-04T04:30:46.675Z,91.93
2022-09-04T04:31:46.685Z,91.73
2022-09-04T04:32:46.985Z,91.63
2022-09-04T04:33:46.640Z,91.63
2022-09-04T04:34:46.997Z,91.63
2022-09-04T04:35:46.615Z,91.52
2022-09-04T04:36:46.585Z,91.52
2022-09-04T04:37:47.485Z,91.42
2022-09-04T04:38:47.395Z,91.52
2022-09-04T04:39:46.660Z,91.63
2022-09-04T04:40:46.527Z,91.63
2022-09-04T04:41:47.365Z,91.31
2022-09-04T04:42:47.266Z,91.31
2022-09-04T04:43:47.430Z,91.42
2022-09-04T04:44:46.525Z,91.31
2022-09-04T04:45:46.565Z,90.70
2022-09-04T04:46:46.760Z,90.60
2022-09-04T04:47:46.886Z,90.91
2022-09-04T04:48:46.444Z,91.11
2022-09-04T04:49:46.506Z,91.11
2022-09-04T04:50:47.007Z,91.22
2022-09-04T04:51:46.414Z,91.42
2022-09-04T04:52:47.015Z,91.42
2022-09-04T04:53:47.237Z,91.42
2022-09-04T04:54:47.145Z,91.52
2022-09-04T04:55:46.375Z,91.42
2022-09-04T04:56:47.104Z,91.42
2022-09-04T04:57:47.140Z,91.42
2022-09-04T04:58:46.344Z,91.42
2022-09-04T04:59:47.197Z,91.42
2022-09-04T05:00:46.336Z,91.11
2022-09-04T05:01:46.454Z,90.91
2022-09-04T05:02:47.209Z,91.11
2022-09-04T05:03:47.043Z,91.31
2022-09-04T05:04:47.207Z,91.31
2022-09-04T05:05:46.305Z,91.31
2022-09-04T05:06:46.274Z,91.22
2022-09-04T05:07:46.216Z,91.11
2022-09-04T05:08:47.074Z,91.11
2022-09-04T05:09:46.216Z,91.11
2022-09-04T05:10:46.213Z,91.01
2022-09-04T05:11:46.194Z,91.11
2022-09-04T05:12:46.213Z,91.11
2022-09-04T05:13:46.192Z,91.11
2022-09-04T05:14:46.195Z,91.31
2022-09-04T05:16:07.538Z,91.22
2022-09-04T05:16:48.504Z,91.17
2022-09-04T05:17:46.124Z,91.07
2022-09-04T05:18:46.162Z,90.97
2022-09-04T05:19:46.134Z,90.86
2022-09-04T05:20:46.132Z,90.77
2022-09-04T05:21:46.094Z,90.77
2022-09-04T05:22:46.793Z,90.77
2022-09-04T05:23:46.055Z,90.77
2022-09-04T05:24:46.083Z,90.86
2022-09-04T05:25:46.013Z,90.97
2022-09-04T05:26:46.882Z,90.97
2022-09-04T05:27:46.003Z,90.92
2022-09-04T05:28:46.034Z,91.03
2022-09-04T05:29:46.087Z,91.03
2022-09-04T05:30:46.132Z,90.92
2022-09-04T05:31:46.915Z,90.72
2022-09-04T05:32:46.114Z,90.47
2022-09-04T05:33:46.104Z,90.27
2022-09-04T05:34:45.933Z,90.17
2022-09-04T05:35:45.974Z,90.12
2022-09-04T05:36:45.983Z,89.82
2022-09-04T05:37:46.861Z,89.82
2022-09-04T05:38:46.762Z,89.82
2022-09-04T05:39:45.945Z,89.67
2022-09-04T05:40:45.867Z,89.37
2022-09-04T05:41:45.863Z,88.65
2022-09-04T05:42:45.854Z,88.14
2022-09-04T05:43:46.532Z,87.53
2022-09-04T05:44:45.862Z,87.29
2022-09-04T05:45:45.947Z,87.18
2022-09-04T05:46:45.865Z,87.08
2022-09-04T05:47:47.682Z,86.98
2022-09-04T05:48:46.567Z,86.73
2022-09-04T05:49:45.777Z,86.53
2022-09-04T05:50:45.931Z,86.43
2022-09-04T05:51:45.724Z,86.33
2022-09-04T05:52:45.749Z,86.18
2022-09-04T05:53:45.750Z,85.47
2022-09-04T05:54:46.516Z,85.37
2022-09-04T05:55:46.403Z,85.16
2022-09-04T05:56:45.702Z,84.96
2022-09-04T05:57:45.653Z,84.92
2022-09-04T05:58:45.683Z,84.72
2022-09-04T05:59:45.662Z,84.51
2022-09-04T06:00:45.721Z,84.00
2022-09-04T06:01:49.883Z,84.11
2022-09-04T06:02:46.668Z,84.37
2022-09-04T06:03:46.411Z,84.27
2022-09-04T06:04:46.318Z,83.96
2022-09-04T06:05:45.583Z,83.96
2022-09-04T06:06:45.586Z,83.72
2022-09-04T06:07:45.733Z,83.62
2022-09-04T06:08:46.239Z,83.62
2022-09-04T06:09:45.804Z,83.62
2022-09-04T06:10:45.543Z,82.87
2022-09-04T06:11:45.496Z,82.87
2022-09-04T06:12:45.503Z,82.87
2022-09-04T06:13:45.512Z,82.82
2022-09-04T06:14:45.491Z,82.52
2022-09-04T06:15:45.560Z,82.12
2022-09-04T06:16:45.472Z,81.67
2022-09-04T06:17:45.453Z,81.16
2022-09-04T06:18:46.244Z,80.76
2022-09-04T06:19:45.443Z,80.62
2022-09-04T06:20:45.432Z,80.51
2022-09-04T06:21:45.442Z,80.21
2022-09-04T06:22:48.083Z,79.97
2022-09-04T06:23:45.477Z,79.86
2022-09-04T06:24:45.472Z,79.86
2022-09-04T06:25:46.082Z,79.93
2022-09-04T06:26:45.402Z,79.93
2022-09-04T06:27:45.334Z,79.12
2022-09-04T06:28:46.260Z,78.17
2022-09-04T06:29:45.306Z,77.86
2022-09-04T06:30:45.312Z,77.97
2022-09-04T06:31:45.284Z,78.13
2022-09-04T06:32:45.283Z,77.83
2022-09-04T06:33:45.543Z,77.12
2022-09-04T06:34:45.272Z,76.67
2022-09-04T06:35:45.245Z,76.57
2022-09-04T06:36:45.286Z,76.57
2022-09-04T06:37:45.673Z,76.43
2022-09-04T06:38:45.242Z,76.23
2022-09-04T06:39:45.231Z,76.13
2022-09-04T06:40:45.215Z,75.79
2022-09-04T06:41:45.703Z,74.88
2022-09-04T06:42:45.170Z,75.38
2022-09-04T06:43:45.302Z,74.24
2022-09-04T06:44:45.233Z,69.17
2022-09-04T06:45:45.133Z,70.79
2022-09-04T06:46:45.208Z,66.33
2022-09-04T06:47:45.103Z,71.80
2022-09-04T06:48:45.205Z,73.39
2022-09-04T06:49:45.072Z,70.65
2022-09-04T06:50:45.243Z,70.25
2022-09-04T06:51:45.055Z,72.17
2022-09-04T06:52:45.053Z,72.44
2022-09-04T06:53:45.032Z,72.24
2022-09-04T06:54:45.083Z,71.53
2022-09-04T06:55:45.003Z,70.89
2022-09-04T06:56:45.014Z,71.50
2022-09-04T06:57:44.983Z,70.59
2022-09-04T06:58:44.985Z,72.41
2022-09-04T06:59:44.976Z,72.78
2022-09-04T07:00:44.965Z,72.99
2022-09-04T07:01:45.005Z,72.88
2022-09-04T07:02:45.132Z,72.88
2022-09-04T07:03:44.927Z,72.55
2022-09-04T07:04:44.994Z,72.85
2022-09-04T07:05:45.607Z,72.64
2022-09-04T07:06:44.903Z,72.64
2022-09-04T07:07:44.876Z,72.61
2022-09-04T07:08:44.975Z,72.31
2022-09-04T07:09:44.844Z,72.00
2022-09-04T07:10:44.854Z,72.00
2022-09-04T07:11:44.832Z,72.21
2022-09-04T07:12:44.862Z,72.11
2022-09-04T07:13:44.813Z,71.77
2022-09-04T07:14:44.816Z,71.37
2022-09-04T07:15:44.881Z,70.15
2022-09-04T07:16:44.795Z,71.67
2022-09-04T07:17:44.774Z,72.07
2022-09-04T07:18:45.244Z,72.27
2022-09-04T07:19:44.734Z,72.04
2022-09-04T07:20:44.744Z,71.84
2022-09-04T07:21:44.765Z,71.53
2022-09-04T07:22:44.723Z,71.40
2022-09-04T07:23:44.705Z,70.69
2022-09-04T07:24:45.545Z,71.30
2022-09-04T07:25:44.723Z,71.47
2022-09-04T07:26:44.984Z,70.15
2022-09-04T07:27:44.977Z,70.76
2022-09-04T07:28:45.104Z,68.54
2022-09-04T07:29:44.624Z,71.53
2022-09-04T07:30:44.647Z,72.94
2022-09-04T07:31:44.659Z,73.32
2022-09-04T07:32:44.614Z,72.91
2022-09-04T07:33:44.604Z,73.41
2022-09-04T07:34:44.595Z,73.58
2022-09-04T07:35:44.574Z,74.49
2022-09-04T07:36:44.568Z,73.58
2022-09-04T07:37:44.554Z,74.18
2022-09-04T07:38:44.551Z,74.85
2022-09-04T07:39:45.593Z,75.05
2022-09-04T07:40:44.528Z,74.65
2022-09-04T07:41:44.506Z,74.72
2022-09-04T07:42:44.485Z,74.72
2022-09-04T07:43:44.488Z,74.11
2022-09-04T07:44:44.466Z,73.91
2022-09-04T07:45:44.465Z,74.08
2022-09-04T07:46:44.627Z,73.58
2022-09-04T07:47:44.445Z,73.88
2022-09-04T07:48:44.615Z,73.47
2022-09-04T07:49:44.434Z,73.68
2022-09-04T07:50:44.417Z,73.88
2022-09-04T07:51:44.397Z,73.54
2022-09-04T07:52:44.395Z,73.24
2022-09-04T07:53:44.366Z,73.14
2022-09-04T07:54:44.656Z,72.74
2022-09-04T07:55:44.396Z,72.40
2022-09-04T07:56:44.328Z,72.71
2022-09-04T07:57:44.326Z,72.71
2022-09-04T07:58:44.309Z,71.20
2022-09-04T07:59:44.306Z,71.80
2022-09-04T08:00:44.295Z,72.00
2022-09-04T08:01:44.339Z,72.67
2022-09-04T08:02:44.997Z,72.67
2022-09-04T08:03:53.968Z,71.77
2022-09-04T08:04:45.276Z,71.53
2022-09-04T08:05:44.247Z,72.03
2022-09-04T08:06:44.229Z,71.30
2022-09-04T08:07:44.220Z,71.09
2022-09-04T08:08:44.197Z,71.30
2022-09-04T08:09:44.207Z,71.50
2022-09-04T08:10:44.181Z,70.89
2022-09-04T08:11:44.182Z,70.29
2022-09-04T08:12:44.166Z,70.66
2022-09-04T08:13:44.140Z,70.46
2022-09-04T08:14:44.147Z,70.86
2022-09-04T08:15:44.193Z,70.16
2022-09-04T08:16:44.107Z,69.73
2022-09-04T08:17:44.127Z,69.73
2022-09-04T08:18:44.103Z,69.93
2022-09-04T08:19:44.069Z,69.42
2022-09-04T08:20:44.069Z,69.09
2022-09-04T08:21:44.057Z,66.78
2022-09-04T08:22:44.127Z,68.49
2022-09-04T08:23:44.057Z,67.59
2022-09-04T08:24:44.027Z,68.39
2022-09-04T08:25:44.000Z,68.29
2022-09-04T08:26:44.007Z,67.96
2022-09-04T08:27:44.477Z,67.36
2022-09-04T08:28:46.285Z,67.16
2022-09-04T08:29:43.967Z,67.55
2022-09-04T08:30:44.004Z,66.86
2022-09-04T08:31:43.937Z,66.42
2022-09-04T08:32:43.948Z,66.52
2022-09-04T08:33:43.928Z,66.32
2022-09-04T08:34:43.918Z,66.32
2022-09-04T08:35:43.898Z,66.72
2022-09-04T08:36:43.899Z,65.52
2022-09-04T08:37:43.868Z,65.79
2022-09-04T08:38:43.868Z,65.39
2022-09-04T08:39:43.910Z,65.29
2022-09-04T08:40:43.880Z,65.39
2022-09-04T08:41:43.837Z,65.19
2022-09-04T08:42:43.841Z,64.99
2022-09-04T08:43:43.819Z,65.89
2022-09-04T08:44:43.831Z,64.99
2022-09-04T08:45:43.791Z,64.89
2022-09-04T08:46:43.831Z,64.39
2022-09-04T08:47:43.768Z,64.69
2022-09-04T08:48:43.776Z,65.16
2022-09-04T08:49:43.740Z,64.56
2022-09-04T08:50:43.751Z,64.63
2022-09-04T08:51:43.718Z,63.63
2022-09-04T08:52:43.732Z,63.43
2022-09-04T08:53:43.729Z,62.93
2022-09-04T08:54:43.701Z,63.20
2022-09-04T08:55:43.678Z,63.30
2022-09-04T08:56:43.676Z,63.40
2022-09-04T08:57:43.649Z,62.81
2022-09-04T08:58:47.668Z,62.90
2022-09-04T08:59:43.635Z,62.50
2022-09-04T09:00:43.632Z,62.57
2022-09-04T09:01:43.635Z,62.18
2022-09-04T09:02:43.659Z,61.68
2022-09-04T09:03:43.599Z,61.05
2022-09-04T09:04:43.600Z,61.08
2022-09-04T09:05:43.560Z,61.47
2022-09-04T09:06:43.560Z,61.18
2022-09-04T09:07:43.541Z,61.35
2022-09-04T09:08:43.554Z,61.05
2022-09-04T09:09:43.541Z,60.65
2022-09-04T09:10:43.520Z,60.82
2022-09-04T09:11:44.238Z,60.52
2022-09-04T09:12:43.519Z,60.32
2022-09-04T09:13:43.495Z,60.02
2022-09-04T09:14:43.488Z,59.52
2022-09-04T09:15:43.483Z,59.22
2022-09-04T09:16:43.485Z,59.65
2022-09-04T09:17:43.441Z,60.05
2022-09-04T09:18:43.430Z,59.62
2022-09-04T09:19:43.421Z,59.62
2022-09-04T09:20:43.391Z,59.69
2022-09-04T09:21:43.402Z,59.49
2022-09-04T09:22:43.397Z,58.87
2022-09-04T09:23:43.382Z,58.07
2022-09-04T09:24:43.347Z,57.67
2022-09-04T09:25:44.107Z,58.07
2022-09-04T09:26:43.332Z,57.87
2022-09-04T09:27:43.361Z,57.87
2022-09-04T09:28:43.382Z,57.84
2022-09-04T09:29:43.320Z,57.35
2022-09-04T09:30:43.351Z,56.95
2022-09-04T09:31:43.292Z,56.92
2022-09-04T09:32:43.290Z,57.12
2022-09-04T09:33:43.301Z,56.62
2022-09-04T09:34:43.242Z,56.42
2022-09-04T09:35:43.255Z,56.32
2022-09-04T09:36:43.234Z,56.02
2022-09-04T09:37:43.271Z,56.05
2022-09-04T09:38:43.203Z,56.52
2022-09-04T09:39:43.264Z,56.12
2022-09-04T09:40:43.188Z,55.93
2022-09-04T09:41:43.177Z,56.42
2022-09-04T09:42:43.153Z,56.42
2022-09-04T09:43:43.164Z,55.90
2022-09-04T09:44:43.875Z,55.50
2022-09-04T09:45:43.204Z,55.70
2022-09-04T09:46:43.113Z,54.90
2022-09-04T09:47:43.123Z,55.00
2022-09-04T09:48:43.085Z,55.57
2022-09-04T09:49:43.125Z,55.08
2022-09-04T09:50:43.194Z,54.65
2022-09-04T09:51:43.076Z,54.65
2022-09-04T09:52:43.043Z,54.16
2022-09-04T09:53:47.070Z,54.25
2022-09-04T09:54:43.044Z,53.96
2022-09-04T09:55:43.036Z,54.03
2022-09-04T09:56:43.005Z,53.73
2022-09-04T09:57:44.033Z,53.63
2022-09-04T09:58:42.974Z,53.23
2022-09-04T09:59:42.979Z,52.84
2022-09-04T10:00:43.875Z,53.01
2022-09-04T10:01:43.064Z,53.01
2022-09-04T10:02:43.732Z,52.31
2022-09-04T10:03:43.017Z,53.14
2022-09-04T10:04:42.925Z,53.01
2022-09-04T10:05:42.945Z,52.91
2022-09-04T10:06:42.895Z,52.72
2022-09-04T10:07:42.906Z,52.29
2022-09-04T10:08:42.877Z,52.29
2022-09-04T10:09:42.879Z,52.12
2022-09-04T10:10:42.876Z,52.42
2022-09-04T10:11:42.856Z,52.42
2022-09-04T10:12:42.828Z,52.69
2022-09-04T10:13:42.826Z,52.29
2022-09-04T10:14:42.798Z,52.59
2022-09-04T10:15:42.806Z,52.17
2022-09-04T10:16:42.909Z,51.57
2022-09-04T10:17:43.531Z,51.47
2022-09-04T10:18:42.788Z,51.35
2022-09-04T10:19:42.793Z,51.65
2022-09-04T10:20:42.738Z,51.62
2022-09-04T10:21:42.737Z,51.52
2022-09-04T10:22:42.748Z,51.70
2022-09-04T10:23:42.733Z,50.38
2022-09-04T10:24:42.709Z,48.70
2022-09-04T10:25:42.712Z,49.42
2022-09-04T10:26:42.681Z,49.91
2022-09-04T10:27:44.094Z,50.38
2022-09-04T10:28:42.675Z,49.49
2022-09-04T10:29:42.708Z,50.51
2022-09-04T10:30:43.397Z,52.09
2022-09-04T10:31:42.637Z,49.91
2022-09-04T10:32:42.610Z,50.01
2022-09-04T10:33:42.629Z,49.64
2022-09-04T10:34:42.593Z,50.28
2022-09-04T10:35:42.600Z,50.46
2022-09-04T10:36:43.188Z,51.05
2022-09-04T10:37:42.571Z,50.63
2022-09-04T10:38:42.541Z,50.51
2022-09-04T10:39:42.661Z,50.81
2022-09-04T10:40:45.177Z,48.50
2022-09-04T10:41:42.549Z,48.50
2022-09-04T10:42:42.720Z,48.77
2022-09-04T10:43:42.509Z,48.06
2022-09-04T10:44:42.508Z,48.16
2022-09-04T10:45:42.994Z,48.24
2022-09-04T10:46:42.460Z,47.94
2022-09-04T10:47:42.473Z,47.42
2022-09-04T10:48:42.433Z,47.32
2022-09-04T10:49:43.273Z,47.89
2022-09-04T10:50:43.222Z,45.42
2022-09-04T10:51:42.444Z,47.50
2022-09-04T10:52:42.400Z,45.94
2022-09-04T10:53:42.425Z,46.23
2022-09-04T10:54:42.392Z,48.93
2022-09-04T10:55:42.446Z,47.54
2022-09-04T10:56:42.351Z,46.95
2022-09-04T10:57:42.353Z,46.97
2022-09-04T10:58:42.354Z,47.37
2022-09-04T10:59:42.358Z,48.18
2022-09-04T11:00:42.483Z,49.69
2022-09-04T11:01:43.143Z,50.48
2022-09-04T11:02:43.153Z,49.47
2022-09-04T11:03:42.293Z,49.37
2022-09-04T11:04:42.281Z,47.52
2022-09-04T11:05:43.106Z,48.13
2022-09-04T11:06:42.274Z,49.12
2022-09-04T11:07:43.081Z,48.43
2022-09-04T11:08:42.773Z,49.79
2022-09-04T11:09:42.225Z,48.68
2022-09-04T11:10:42.273Z,48.16
2022-09-04T11:11:42.243Z,47.77
2022-09-04T11:12:42.884Z,46.78
2022-09-04T11:13:42.195Z,48.16
2022-09-04T11:14:42.173Z,47.17
2022-09-04T11:15:42.185Z,47.27
2022-09-04T11:16:42.608Z,47.27
2022-09-04T11:17:42.884Z,47.39
2022-09-04T11:18:42.825Z,47.86
2022-09-04T11:19:42.165Z,46.18
2022-09-04T11:20:42.126Z,45.59
2022-09-04T11:21:42.137Z,46.75
2022-09-04T11:22:42.074Z,46.75
2022-09-04T11:23:42.836Z,45.45
2022-09-04T11:24:42.057Z,45.92
2022-09-04T11:25:42.696Z,46.91
2022-09-04T11:26:42.705Z,46.59
2022-09-04T11:27:42.366Z,44.34
2022-09-04T11:28:42.125Z,44.83
2022-09-04T11:29:42.238Z,46.55
2022-09-04T11:30:47.860Z,48.28
2022-09-04T11:31:43.163Z,49.07
2022-09-04T11:32:42.727Z,49.07
2022-09-04T11:33:41.983Z,48.26
2022-09-04T11:34:42.000Z,47.17
2022-09-04T11:35:42.086Z,48.16
2022-09-04T11:36:41.928Z,47.17
2022-09-04T11:37:42.276Z,47.69
2022-09-04T11:38:41.925Z,47.89
2022-09-04T11:39:42.012Z,48.08
2022-09-04T11:40:42.167Z,48.03
2022-09-04T11:41:41.879Z,48.94
2022-09-04T11:42:41.947Z,48.65
2022-09-04T11:43:41.891Z,50.04
2022-09-04T11:44:43.139Z,48.85
2022-09-04T11:45:41.951Z,50.21
2022-09-04T11:46:41.826Z,48.25
2022-09-04T11:47:41.819Z,49.24
2022-09-04T11:48:42.328Z,49.17
2022-09-04T11:49:42.283Z,49.69
2022-09-04T11:50:41.777Z,50.09
2022-09-04T11:51:41.815Z,50.36
2022-09-04T11:52:42.848Z,50.46
2022-09-04T11:53:41.978Z,49.94
2022-09-04T11:54:41.747Z,48.92
2022-09-04T11:55:41.750Z,48.40
2022-09-04T11:56:41.721Z,48.01
2022-09-04T11:57:41.722Z,48.21
2022-09-04T11:58:41.721Z,48.43
2022-09-04T11:59:41.719Z,50.11
2022-09-04T12:00:42.017Z,48.45
2022-09-04T12:01:47.068Z,49.27
2022-09-04T12:02:43.455Z,49.09
2022-09-04T12:03:42.394Z,49.71
2022-09-04T12:04:42.471Z,51.52
2022-09-04T12:05:41.631Z,51.60
2022-09-04T12:06:42.255Z,51.28
2022-09-04T12:07:43.546Z,50.65
2022-09-04T12:08:42.349Z,49.99
2022-09-04T12:09:41.590Z,50.58
2022-09-04T12:10:41.590Z,50.76
2022-09-04T12:11:41.610Z,49.74
2022-09-04T12:12:41.531Z,49.00
2022-09-04T12:13:41.571Z,47.89
2022-09-04T12:14:41.523Z,47.27
2022-09-04T12:15:41.537Z,45.86
2022-09-04T12:16:44.426Z,46.53
2022-09-04T12:17:41.508Z,45.23
2022-09-04T12:18:42.455Z,44.04
2022-09-04T12:19:42.310Z,45.10
2022-09-04T12:20:41.741Z,44.51
2022-09-04T12:21:41.470Z,44.10
2022-09-04T12:22:41.432Z,44.69
2022-09-04T12:23:42.217Z,43.98
2022-09-04T12:24:41.401Z,43.09
2022-09-04T12:25:41.473Z,43.78
2022-09-04T12:26:51.753Z,43.38
2022-09-04T12:27:42.413Z,42.50
2022-09-04T12:28:41.389Z,42.69
2022-09-04T12:29:41.393Z,42.89
2022-09-04T12:30:41.355Z,42.99
2022-09-04T12:31:41.398Z,42.60
2022-09-04T12:32:41.314Z,42.60
2022-09-04T12:33:42.023Z,42.99
2022-09-04T12:34:41.310Z,42.60
2022-09-04T12:35:41.844Z,41.99
2022-09-04T12:36:41.274Z,41.49
2022-09-04T12:37:41.315Z,40.48
2022-09-04T12:38:41.253Z,40.90
2022-09-04T12:39:41.441Z,41.59
2022-09-04T12:40:42.092Z,43.17
2022-09-04T12:41:41.255Z,42.36
2022-09-04T12:42:41.316Z,40.98
2022-09-04T12:43:41.236Z,42.14
2022-09-04T12:44:41.952Z,40.96
2022-09-04T12:45:41.361Z,40.37
2022-09-04T12:46:42.031Z,41.25
2022-09-04T12:47:41.178Z,40.66
2022-09-04T12:48:41.180Z,41.25
2022-09-04T12:49:41.227Z,42.91
2022-09-04T12:50:41.172Z,42.08
2022-09-04T12:51:41.363Z,39.32
2022-09-04T12:52:41.576Z,38.95